sensor_id;sensor_type;location;lat;lon;timestamp;temperature;humidity
10980;DHT22;5543;51.734;8.744;2022-10-16T00:01:38;12.90;99.90
10980;DHT22;5543;51.734;8.744;2022-10-16T00:04:06;12.90;99.90
10980;DHT22;5543;51.734;8.744;2022-10-16T00:06:34;12.90;99.90
10980;DHT22;5543;51.734;8.744;2022-10-16T00:09:02;12.90;99.90
10980;DHT22;5543;51.734;8.744;2022-10-16T00:11:33;12.90;99.90
10980;DHT22;5543;51.734;8.744;2022-10-16T00:14:05;12.90;99.90
10980;DHT22;5543;51.734;8.744;2022-10-16T00:16:35;12.90;99.90
10980;DHT22;5543;51.734;8.744;2022-10-16T00:19:03;12.90;99.90
10980;DHT22;5543;51.734;8.744;2022-10-16T00:21:31;12.90;99.90
10980;DHT22;5543;51.734;8.744;2022-10-16T00:24:02;12.90;99.90
10980;DHT22;5543;51.734;8.744;2022-10-16T00:26:33;12.90;99.90
10980;DHT22;5543;51.734;8.744;2022-10-16T00:29:02;13.00;99.90
10980;DHT22;5543;51.734;8.744;2022-10-16T00:31:30;13.00;99.90
10980;DHT22;5543;51.734;8.744;2022-10-16T00:34:00;13.10;99.90
10980;DHT22;5543;51.734;8.744;2022-10-16T00:36:28;13.00;99.90
10980;DHT22;5543;51.734;8.744;2022-10-16T00:38:57;13.00;99.90
10980;DHT22;5543;51.734;8.744;2022-10-16T00:41:27;13.00;99.90
10980;DHT22;5543;51.734;8.744;2022-10-16T00:43:57;13.00;99.90
10980;DHT22;5543;51.734;8.744;2022-10-16T00:46:27;12.80;99.90
10980;DHT22;5543;51.734;8.744;2022-10-16T00:49:01;12.70;99.90
10980;DHT22;5543;51.734;8.744;2022-10-16T00:51:33;12.90;99.90
10980;DHT22;5543;51.734;8.744;2022-10-16T00:54:03;12.90;99.90
10980;DHT22;5543;51.734;8.744;2022-10-16T00:56:32;12.90;99.90
10980;DHT22;5543;51.734;8.744;2022-10-16T00:59:04;12.90;99.90
10980;DHT22;5543;51.734;8.744;2022-10-16T01:01:34;12.90;99.90
10980;DHT22;5543;51.734;8.744;2022-10-16T01:04:04;12.80;99.90
10980;DHT22;5543;51.734;8.744;2022-10-16T01:06:37;12.80;99.90
10980;DHT22;5543;51.734;8.744;2022-10-16T01:09:14;12.80;99.90
10980;DHT22;5543;51.734;8.744;2022-10-16T01:11:54;12.80;99.90
10980;DHT22;5543;51.734;8.744;2022-10-16T01:14:30;12.80;99.90
10980;DHT22;5543;51.734;8.744;2022-10-16T01:17:04;12.90;99.90
10980;DHT22;5543;51.734;8.744;2022-10-16T01:19:54;12.90;99.90
10980;DHT22;5543;51.734;8.744;2022-10-16T01:22:31;12.90;99.90
10980;DHT22;5543;51.734;8.744;2022-10-16T01:25:05;12.80;99.90
10980;DHT22;5543;51.734;8.744;2022-10-16T01:27:40;12.80;99.90
10980;DHT22;5543;51.734;8.744;2022-10-16T01:30:12;12.80;99.90
10980;DHT22;5543;51.734;8.744;2022-10-16T01:32:45;12.80;99.90
10980;DHT22;5543;51.734;8.744;2022-10-16T01:35:22;12.80;99.90
10980;DHT22;5543;51.734;8.744;2022-10-16T01:37:59;12.70;99.90
10980;DHT22;5543;51.734;8.744;2022-10-16T01:40:33;12.70;99.90
10980;DHT22;5543;51.734;8.744;2022-10-16T01:43:06;12.60;99.90
10980;DHT22;5543;51.734;8.744;2022-10-16T01:45:36;12.60;99.90
10980;DHT22;5543;51.734;8.744;2022-10-16T01:48:05;12.60;99.90
10980;DHT22;5543;51.734;8.744;2022-10-16T01:50:39;12.70;99.90
10980;DHT22;5543;51.734;8.744;2022-10-16T01:53:11;12.60;99.90
10980;DHT22;5543;51.734;8.744;2022-10-16T01:55:44;12.60;99.90
10980;DHT22;5543;51.734;8.744;2022-10-16T01:58:15;12.60;99.90
10980;DHT22;5543;51.734;8.744;2022-10-16T02:00:45;12.50;99.90
10980;DHT22;5543;51.734;8.744;2022-10-16T02:03:16;12.80;99.90
10980;DHT22;5543;51.734;8.744;2022-10-16T02:05:47;12.70;99.90
10980;DHT22;5543;51.734;8.744;2022-10-16T02:08:17;12.60;99.90
10980;DHT22;5543;51.734;8.744;2022-10-16T02:10:46;12.60;99.90
10980;DHT22;5543;51.734;8.744;2022-10-16T02:13:17;12.60;99.90
10980;DHT22;5543;51.734;8.744;2022-10-16T02:15:47;12.70;99.90
10980;DHT22;5543;51.734;8.744;2022-10-16T02:18:15;12.60;99.90
10980;DHT22;5543;51.734;8.744;2022-10-16T02:20:48;12.70;99.90
10980;DHT22;5543;51.734;8.744;2022-10-16T02:23:24;12.70;99.90
10980;DHT22;5543;51.734;8.744;2022-10-16T02:25:56;12.80;99.90
10980;DHT22;5543;51.734;8.744;2022-10-16T02:28:32;12.90;99.90
10980;DHT22;5543;51.734;8.744;2022-10-16T02:31:04;13.10;99.90
10980;DHT22;5543;51.734;8.744;2022-10-16T02:33:37;13.10;99.90
10980;DHT22;5543;51.734;8.744;2022-10-16T02:36:07;13.10;99.90
10980;DHT22;5543;51.734;8.744;2022-10-16T02:38:36;13.20;99.90
10980;DHT22;5543;51.734;8.744;2022-10-16T02:41:04;13.20;99.90
10980;DHT22;5543;51.734;8.744;2022-10-16T02:43:34;13.30;99.90
10980;DHT22;5543;51.734;8.744;2022-10-16T02:46:02;13.40;99.90
10980;DHT22;5543;51.734;8.744;2022-10-16T02:48:30;13.50;99.90
10980;DHT22;5543;51.734;8.744;2022-10-16T02:50:58;13.50;99.90
10980;DHT22;5543;51.734;8.744;2022-10-16T02:53:26;13.60;99.90
10980;DHT22;5543;51.734;8.744;2022-10-16T02:55:54;13.60;99.90
10980;DHT22;5543;51.734;8.744;2022-10-16T02:58:22;13.60;99.90
10980;DHT22;5543;51.734;8.744;2022-10-16T03:00:51;13.60;99.90
10980;DHT22;5543;51.734;8.744;2022-10-16T03:03:19;13.60;99.90
10980;DHT22;5543;51.734;8.744;2022-10-16T03:05:47;13.60;99.90
10980;DHT22;5543;51.734;8.744;2022-10-16T03:08:15;13.60;99.90
10980;DHT22;5543;51.734;8.744;2022-10-16T03:10:44;13.60;99.90
10980;DHT22;5543;51.734;8.744;2022-10-16T03:13:12;13.60;99.90
10980;DHT22;5543;51.734;8.744;2022-10-16T03:15:40;13.60;99.90
10980;DHT22;5543;51.734;8.744;2022-10-16T03:18:09;13.60;99.90
10980;DHT22;5543;51.734;8.744;2022-10-16T03:20:37;13.60;99.90
10980;DHT22;5543;51.734;8.744;2022-10-16T03:23:05;13.60;99.90
10980;DHT22;5543;51.734;8.744;2022-10-16T03:25:34;13.70;99.90
10980;DHT22;5543;51.734;8.744;2022-10-16T03:28:03;13.60;99.90
10980;DHT22;5543;51.734;8.744;2022-10-16T03:30:31;13.60;99.90
10980;DHT22;5543;51.734;8.744;2022-10-16T03:32:59;13.60;99.90
10980;DHT22;5543;51.734;8.744;2022-10-16T03:35:28;13.60;99.90
10980;DHT22;5543;51.734;8.744;2022-10-16T03:37:56;13.50;99.90
10980;DHT22;5543;51.734;8.744;2022-10-16T03:40:24;13.50;99.90
10980;DHT22;5543;51.734;8.744;2022-10-16T03:42:52;13.50;99.90
10980;DHT22;5543;51.734;8.744;2022-10-16T03:45:21;13.50;99.90
10980;DHT22;5543;51.734;8.744;2022-10-16T03:47:49;13.50;99.90
10980;DHT22;5543;51.734;8.744;2022-10-16T03:50:17;13.40;99.90
10980;DHT22;5543;51.734;8.744;2022-10-16T03:52:47;13.40;99.90
10980;DHT22;5543;51.734;8.744;2022-10-16T03:55:15;13.40;99.90
10980;DHT22;5543;51.734;8.744;2022-10-16T03:57:43;13.50;99.90
10980;DHT22;5543;51.734;8.744;2022-10-16T04:00:12;13.50;99.90
10980;DHT22;5543;51.734;8.744;2022-10-16T04:02:40;13.40;99.90
10980;DHT22;5543;51.734;8.744;2022-10-16T04:05:08;13.40;99.90
10980;DHT22;5543;51.734;8.744;2022-10-16T04:07:36;13.30;99.90
10980;DHT22;5543;51.734;8.744;2022-10-16T04:10:06;13.30;99.90
10980;DHT22;5543;51.734;8.744;2022-10-16T04:12:34;13.30;99.90
10980;DHT22;5543;51.734;8.744;2022-10-16T04:15:03;13.30;99.90
10980;DHT22;5543;51.734;8.744;2022-10-16T04:17:31;13.30;99.90
10980;DHT22;5543;51.734;8.744;2022-10-16T04:19:59;13.30;99.90
10980;DHT22;5543;51.734;8.744;2022-10-16T04:22:27;13.30;99.90
10980;DHT22;5543;51.734;8.744;2022-10-16T04:24:55;13.30;99.90
10980;DHT22;5543;51.734;8.744;2022-10-16T04:27:24;13.40;99.90
10980;DHT22;5543;51.734;8.744;2022-10-16T04:29:53;13.40;99.90
10980;DHT22;5543;51.734;8.744;2022-10-16T04:32:21;13.40;99.90
10980;DHT22;5543;51.734;8.744;2022-10-16T04:34:49;13.50;99.90
10980;DHT22;5543;51.734;8.744;2022-10-16T04:37:17;13.50;99.90
10980;DHT22;5543;51.734;8.744;2022-10-16T04:39:45;13.50;99.90
10980;DHT22;5543;51.734;8.744;2022-10-16T04:42:13;13.50;99.90
10980;DHT22;5543;51.734;8.744;2022-10-16T04:44:42;13.40;99.90
10980;DHT22;5543;51.734;8.744;2022-10-16T04:47:11;13.40;99.90
10980;DHT22;5543;51.734;8.744;2022-10-16T04:49:39;13.40;99.90
10980;DHT22;5543;51.734;8.744;2022-10-16T04:52:07;13.50;99.90
10980;DHT22;5543;51.734;8.744;2022-10-16T04:54:35;13.50;99.90
10980;DHT22;5543;51.734;8.744;2022-10-16T04:57:03;13.60;99.90
10980;DHT22;5543;51.734;8.744;2022-10-16T04:59:32;13.60;99.90
10980;DHT22;5543;51.734;8.744;2022-10-16T05:02:01;13.70;99.90
10980;DHT22;5543;51.734;8.744;2022-10-16T05:04:29;13.50;99.90
10980;DHT22;5543;51.734;8.744;2022-10-16T05:06:57;13.60;99.90
10980;DHT22;5543;51.734;8.744;2022-10-16T05:09:25;13.60;99.90
10980;DHT22;5543;51.734;8.744;2022-10-16T05:11:53;13.70;99.90
10980;DHT22;5543;51.734;8.744;2022-10-16T05:14:21;13.70;99.90
10980;DHT22;5543;51.734;8.744;2022-10-16T05:16:49;13.70;99.90
10980;DHT22;5543;51.734;8.744;2022-10-16T05:19:20;13.70;99.90
10980;DHT22;5543;51.734;8.744;2022-10-16T05:21:53;13.60;99.90
10980;DHT22;5543;51.734;8.744;2022-10-16T05:24:21;13.60;99.90
10980;DHT22;5543;51.734;8.744;2022-10-16T05:26:50;13.60;99.90
10980;DHT22;5543;51.734;8.744;2022-10-16T05:29:18;13.50;99.90
10980;DHT22;5543;51.734;8.744;2022-10-16T05:31:46;13.50;99.90
10980;DHT22;5543;51.734;8.744;2022-10-16T05:34:18;13.50;99.90
10980;DHT22;5543;51.734;8.744;2022-10-16T05:36:46;13.40;99.90
10980;DHT22;5543;51.734;8.744;2022-10-16T05:39:15;13.40;99.90
10980;DHT22;5543;51.734;8.744;2022-10-16T05:41:43;13.50;99.90
10980;DHT22;5543;51.734;8.744;2022-10-16T05:44:11;13.60;99.90
10980;DHT22;5543;51.734;8.744;2022-10-16T05:46:39;13.60;99.90
10980;DHT22;5543;51.734;8.744;2022-10-16T05:49:07;13.60;99.90
10980;DHT22;5543;51.734;8.744;2022-10-16T05:51:37;13.70;99.90
10980;DHT22;5543;51.734;8.744;2022-10-16T05:54:05;13.70;99.90
10980;DHT22;5543;51.734;8.744;2022-10-16T05:56:33;13.70;99.90
10980;DHT22;5543;51.734;8.744;2022-10-16T05:59:01;13.80;99.90
10980;DHT22;5543;51.734;8.744;2022-10-16T06:01:30;13.80;99.90
10980;DHT22;5543;51.734;8.744;2022-10-16T06:03:58;13.80;99.90
10980;DHT22;5543;51.734;8.744;2022-10-16T06:06:27;13.80;99.90
10980;DHT22;5543;51.734;8.744;2022-10-16T06:08:57;13.80;99.90
10980;DHT22;5543;51.734;8.744;2022-10-16T06:11:28;13.80;99.90
10980;DHT22;5543;51.734;8.744;2022-10-16T06:13:58;13.80;99.90
10980;DHT22;5543;51.734;8.744;2022-10-16T06:16:28;13.80;99.90
10980;DHT22;5543;51.734;8.744;2022-10-16T06:18:56;13.80;99.90
10980;DHT22;5543;51.734;8.744;2022-10-16T06:21:27;13.80;99.90
10980;DHT22;5543;51.734;8.744;2022-10-16T06:23:57;13.80;99.90
10980;DHT22;5543;51.734;8.744;2022-10-16T06:26:27;13.80;99.90
10980;DHT22;5543;51.734;8.744;2022-10-16T06:28:56;13.80;99.90
10980;DHT22;5543;51.734;8.744;2022-10-16T06:31:24;13.70;99.90
10980;DHT22;5543;51.734;8.744;2022-10-16T06:33:54;13.70;99.90
10980;DHT22;5543;51.734;8.744;2022-10-16T06:36:24;13.80;99.90
10980;DHT22;5543;51.734;8.744;2022-10-16T06:38:52;13.90;99.90
10980;DHT22;5543;51.734;8.744;2022-10-16T06:41:22;14.00;99.90
10980;DHT22;5543;51.734;8.744;2022-10-16T06:43:51;14.00;99.90
10980;DHT22;5543;51.734;8.744;2022-10-16T06:46:21;14.10;99.90
10980;DHT22;5543;51.734;8.744;2022-10-16T06:48:51;14.10;99.90
10980;DHT22;5543;51.734;8.744;2022-10-16T06:51:21;14.20;99.90
10980;DHT22;5543;51.734;8.744;2022-10-16T06:53:51;14.30;99.90
10980;DHT22;5543;51.734;8.744;2022-10-16T06:56:31;14.40;99.90
10980;DHT22;5543;51.734;8.744;2022-10-16T06:59:00;14.40;99.90
10980;DHT22;5543;51.734;8.744;2022-10-16T07:01:29;14.50;99.90
10980;DHT22;5543;51.734;8.744;2022-10-16T07:03:57;14.50;99.90
10980;DHT22;5543;51.734;8.744;2022-10-16T07:06:26;14.50;99.90
10980;DHT22;5543;51.734;8.744;2022-10-16T07:08:55;14.50;99.90
10980;DHT22;5543;51.734;8.744;2022-10-16T07:11:23;14.50;99.90
10980;DHT22;5543;51.734;8.744;2022-10-16T07:13:53;14.60;99.90
10980;DHT22;5543;51.734;8.744;2022-10-16T07:16:24;14.60;99.90
10980;DHT22;5543;51.734;8.744;2022-10-16T07:18:54;14.70;99.90
10980;DHT22;5543;51.734;8.744;2022-10-16T07:21:27;14.80;99.90
10980;DHT22;5543;51.734;8.744;2022-10-16T07:23:57;14.90;99.90
10980;DHT22;5543;51.734;8.744;2022-10-16T07:26:27;15.00;99.90
10980;DHT22;5543;51.734;8.744;2022-10-16T07:28:58;15.00;99.90
10980;DHT22;5543;51.734;8.744;2022-10-16T07:31:26;15.00;99.90
10980;DHT22;5543;51.734;8.744;2022-10-16T07:33:55;15.00;99.90
10980;DHT22;5543;51.734;8.744;2022-10-16T07:36:25;15.10;99.90
10980;DHT22;5543;51.734;8.744;2022-10-16T07:38:53;15.30;99.90
10980;DHT22;5543;51.734;8.744;2022-10-16T07:41:26;15.40;99.90
10980;DHT22;5543;51.734;8.744;2022-10-16T07:43:54;15.60;99.90
10980;DHT22;5543;51.734;8.744;2022-10-16T07:46:28;15.90;99.90
10980;DHT22;5543;51.734;8.744;2022-10-16T07:48:57;16.00;99.90
10980;DHT22;5543;51.734;8.744;2022-10-16T07:51:27;16.20;99.90
10980;DHT22;5543;51.734;8.744;2022-10-16T07:53:55;16.30;99.90
10980;DHT22;5543;51.734;8.744;2022-10-16T07:56:23;16.60;99.90
10980;DHT22;5543;51.734;8.744;2022-10-16T07:58:52;16.90;99.90
10980;DHT22;5543;51.734;8.744;2022-10-16T08:01:20;17.30;99.90
10980;DHT22;5543;51.734;8.744;2022-10-16T08:03:51;17.70;99.90
10980;DHT22;5543;51.734;8.744;2022-10-16T08:06:20;17.80;99.90
10980;DHT22;5543;51.734;8.744;2022-10-16T08:08:54;18.00;99.90
10980;DHT22;5543;51.734;8.744;2022-10-16T08:11:23;18.40;99.90
10980;DHT22;5543;51.734;8.744;2022-10-16T08:13:51;19.30;99.90
10980;DHT22;5543;51.734;8.744;2022-10-16T08:16:19;20.00;99.90
10980;DHT22;5543;51.734;8.744;2022-10-16T08:18:47;20.90;99.90
10980;DHT22;5543;51.734;8.744;2022-10-16T08:21:20;21.40;99.90
10980;DHT22;5543;51.734;8.744;2022-10-16T08:23:49;21.60;99.90
10980;DHT22;5543;51.734;8.744;2022-10-16T08:26:24;21.70;99.90
10980;DHT22;5543;51.734;8.744;2022-10-16T08:28:53;21.90;99.90
10980;DHT22;5543;51.734;8.744;2022-10-16T08:31:21;22.10;99.90
10980;DHT22;5543;51.734;8.744;2022-10-16T08:33:50;21.50;99.90
10980;DHT22;5543;51.734;8.744;2022-10-16T08:36:20;21.60;99.90
10980;DHT22;5543;51.734;8.744;2022-10-16T08:38:49;21.90;99.90
10980;DHT22;5543;51.734;8.744;2022-10-16T08:41:46;22.20;99.90
10980;DHT22;5543;51.734;8.744;2022-10-16T08:44:34;22.00;99.90
10980;DHT22;5543;51.734;8.744;2022-10-16T08:47:12;22.10;99.90
10980;DHT22;5543;51.734;8.744;2022-10-16T08:49:45;22.20;99.90
10980;DHT22;5543;51.734;8.744;2022-10-16T08:52:19;23.00;99.90
10980;DHT22;5543;51.734;8.744;2022-10-16T08:54:51;23.70;99.90
10980;DHT22;5543;51.734;8.744;2022-10-16T08:57:22;23.20;99.90
10980;DHT22;5543;51.734;8.744;2022-10-16T08:59:53;23.20;99.90
10980;DHT22;5543;51.734;8.744;2022-10-16T09:02:26;23.10;99.90
10980;DHT22;5543;51.734;8.744;2022-10-16T09:05:17;23.00;99.90
10980;DHT22;5543;51.734;8.744;2022-10-16T09:07:57;22.50;99.40
10980;DHT22;5543;51.734;8.744;2022-10-16T09:10:37;21.70;99.90
10980;DHT22;5543;51.734;8.744;2022-10-16T09:13:16;21.00;99.90
10980;DHT22;5543;51.734;8.744;2022-10-16T09:15:50;20.30;99.90
10980;DHT22;5543;51.734;8.744;2022-10-16T09:18:24;20.90;99.90
10980;DHT22;5543;51.734;8.744;2022-10-16T09:21:05;20.90;99.90
10980;DHT22;5543;51.734;8.744;2022-10-16T09:23:38;21.00;99.90
10980;DHT22;5543;51.734;8.744;2022-10-16T09:26:10;21.60;99.90
10980;DHT22;5543;51.734;8.744;2022-10-16T09:28:39;22.00;99.90
10980;DHT22;5543;51.734;8.744;2022-10-16T09:31:13;22.40;99.90
10980;DHT22;5543;51.734;8.744;2022-10-16T09:33:44;22.30;99.90
10980;DHT22;5543;51.734;8.744;2022-10-16T09:36:13;21.90;99.90
10980;DHT22;5543;51.734;8.744;2022-10-16T09:38:43;22.20;99.60
10980;DHT22;5543;51.734;8.744;2022-10-16T09:41:16;22.20;99.60
10980;DHT22;5543;51.734;8.744;2022-10-16T09:43:49;22.50;99.40
10980;DHT22;5543;51.734;8.744;2022-10-16T09:46:26;22.90;98.70
10980;DHT22;5543;51.734;8.744;2022-10-16T09:48:57;22.40;98.60
10980;DHT22;5543;51.734;8.744;2022-10-16T09:51:27;23.00;99.40
10980;DHT22;5543;51.734;8.744;2022-10-16T09:53:59;23.40;98.90
10980;DHT22;5543;51.734;8.744;2022-10-16T09:56:29;22.90;97.60
10980;DHT22;5543;51.734;8.744;2022-10-16T09:59:01;22.10;98.80
10980;DHT22;5543;51.734;8.744;2022-10-16T10:01:35;21.20;99.70
10980;DHT22;5543;51.734;8.744;2022-10-16T10:04:05;20.40;99.50
10980;DHT22;5543;51.734;8.744;2022-10-16T10:06:36;19.60;99.90
10980;DHT22;5543;51.734;8.744;2022-10-16T10:09:17;19.40;99.90
10980;DHT22;5543;51.734;8.744;2022-10-16T10:11:52;19.00;99.90
10980;DHT22;5543;51.734;8.744;2022-10-16T10:14:27;18.70;99.90
10980;DHT22;5543;51.734;8.744;2022-10-16T10:17:14;18.80;99.90
10980;DHT22;5543;51.734;8.744;2022-10-16T10:19:47;19.90;99.90
10980;DHT22;5543;51.734;8.744;2022-10-16T10:22:23;20.90;99.90
10980;DHT22;5543;51.734;8.744;2022-10-16T10:24:59;21.40;99.00
10980;DHT22;5543;51.734;8.744;2022-10-16T10:27:35;21.80;98.50
10980;DHT22;5543;51.734;8.744;2022-10-16T10:30:15;21.90;98.10
10980;DHT22;5543;51.734;8.744;2022-10-16T10:32:54;22.10;98.00
10980;DHT22;5543;51.734;8.744;2022-10-16T10:35:28;22.00;98.50
10980;DHT22;5543;51.734;8.744;2022-10-16T10:38:13;21.80;99.10
10980;DHT22;5543;51.734;8.744;2022-10-16T10:40:54;21.60;98.90
10980;DHT22;5543;51.734;8.744;2022-10-16T10:43:34;21.30;98.30
10980;DHT22;5543;51.734;8.744;2022-10-16T10:46:12;20.80;99.40
10980;DHT22;5543;51.734;8.744;2022-10-16T10:49:10;20.50;99.00
10980;DHT22;5543;51.734;8.744;2022-10-16T10:51:47;20.20;98.60
10980;DHT22;5543;51.734;8.744;2022-10-16T10:54:24;19.80;99.90
10980;DHT22;5543;51.734;8.744;2022-10-16T10:57:00;19.50;99.80
10980;DHT22;5543;51.734;8.744;2022-10-16T11:02:32;19.30;99.90
10980;DHT22;5543;51.734;8.744;2022-10-16T11:05:28;19.20;99.90
10980;DHT22;5543;51.734;8.744;2022-10-16T11:07:59;19.20;99.90
10980;DHT22;5543;51.734;8.744;2022-10-16T11:10:42;19.20;99.90
10980;DHT22;5543;51.734;8.744;2022-10-16T11:13:20;19.10;99.90
10980;DHT22;5543;51.734;8.744;2022-10-16T11:15:52;19.00;99.90
10980;DHT22;5543;51.734;8.744;2022-10-16T11:18:24;19.00;99.80
10980;DHT22;5543;51.734;8.744;2022-10-16T11:20:59;18.90;99.90
10980;DHT22;5543;51.734;8.744;2022-10-16T11:23:30;18.90;99.90
10980;DHT22;5543;51.734;8.744;2022-10-16T11:26:02;18.90;99.90
10980;DHT22;5543;51.734;8.744;2022-10-16T11:28:37;19.00;99.90
10980;DHT22;5543;51.734;8.744;2022-10-16T11:31:11;18.90;99.90
10980;DHT22;5543;51.734;8.744;2022-10-16T11:33:45;18.90;99.90
10980;DHT22;5543;51.734;8.744;2022-10-16T11:36:19;18.90;99.90
10980;DHT22;5543;51.734;8.744;2022-10-16T11:38:53;18.90;99.90
10980;DHT22;5543;51.734;8.744;2022-10-16T11:41:27;18.90;99.90
10980;DHT22;5543;51.734;8.744;2022-10-16T11:44:14;18.80;99.90
10980;DHT22;5543;51.734;8.744;2022-10-16T11:46:48;18.70;99.90
10980;DHT22;5543;51.734;8.744;2022-10-16T11:49:37;18.60;99.90
10980;DHT22;5543;51.734;8.744;2022-10-16T11:52:15;18.60;99.90
10980;DHT22;5543;51.734;8.744;2022-10-16T11:54:49;18.60;99.90
10980;DHT22;5543;51.734;8.744;2022-10-16T11:57:21;18.70;99.90
10980;DHT22;5543;51.734;8.744;2022-10-16T11:59:57;18.70;99.90
10980;DHT22;5543;51.734;8.744;2022-10-16T12:02:36;18.80;99.90
10980;DHT22;5543;51.734;8.744;2022-10-16T12:05:15;18.80;99.90
10980;DHT22;5543;51.734;8.744;2022-10-16T12:07:51;18.90;99.90
10980;DHT22;5543;51.734;8.744;2022-10-16T12:10:25;18.90;99.90
10980;DHT22;5543;51.734;8.744;2022-10-16T12:12:54;18.80;99.90
10980;DHT22;5543;51.734;8.744;2022-10-16T12:15:26;18.90;99.90
10980;DHT22;5543;51.734;8.744;2022-10-16T12:18:22;18.90;99.90
10980;DHT22;5543;51.734;8.744;2022-10-16T12:20:55;19.00;99.90
10980;DHT22;5543;51.734;8.744;2022-10-16T12:23:27;19.00;99.90
10980;DHT22;5543;51.734;8.744;2022-10-16T12:25:57;19.00;99.90
10980;DHT22;5543;51.734;8.744;2022-10-16T12:28:27;19.00;99.90
10980;DHT22;5543;51.734;8.744;2022-10-16T12:31:00;19.00;99.90
10980;DHT22;5543;51.734;8.744;2022-10-16T12:33:30;19.00;99.90
10980;DHT22;5543;51.734;8.744;2022-10-16T12:36:02;19.10;99.90
10980;DHT22;5543;51.734;8.744;2022-10-16T12:38:36;19.00;99.90
10980;DHT22;5543;51.734;8.744;2022-10-16T12:41:07;19.10;99.90
10980;DHT22;5543;51.734;8.744;2022-10-16T12:43:39;19.10;99.90
10980;DHT22;5543;51.734;8.744;2022-10-16T12:46:37;19.10;99.90
10980;DHT22;5543;51.734;8.744;2022-10-16T12:49:19;19.10;99.90
10980;DHT22;5543;51.734;8.744;2022-10-16T12:51:48;19.10;99.90
10980;DHT22;5543;51.734;8.744;2022-10-16T12:54:18;19.10;99.90
10980;DHT22;5543;51.734;8.744;2022-10-16T12:56:57;19.10;99.90
10980;DHT22;5543;51.734;8.744;2022-10-16T12:59:42;19.10;99.90
10980;DHT22;5543;51.734;8.744;2022-10-16T13:02:46;19.00;99.90
10980;DHT22;5543;51.734;8.744;2022-10-16T13:05:30;19.00;99.90
10980;DHT22;5543;51.734;8.744;2022-10-16T13:08:11;19.00;99.90
10980;DHT22;5543;51.734;8.744;2022-10-16T13:10:56;19.00;99.90
10980;DHT22;5543;51.734;8.744;2022-10-16T13:13:41;19.00;99.90
10980;DHT22;5543;51.734;8.744;2022-10-16T13:16:20;19.00;99.90
10980;DHT22;5543;51.734;8.744;2022-10-16T13:18:59;18.90;99.90
10980;DHT22;5543;51.734;8.744;2022-10-16T13:21:39;18.80;99.90
10980;DHT22;5543;51.734;8.744;2022-10-16T13:24:20;18.80;99.90
10980;DHT22;5543;51.734;8.744;2022-10-16T13:26:54;18.70;99.90
10980;DHT22;5543;51.734;8.744;2022-10-16T13:29:24;18.60;99.90
10980;DHT22;5543;51.734;8.744;2022-10-16T13:31:58;18.60;99.90
10980;DHT22;5543;51.734;8.744;2022-10-16T13:34:29;18.60;99.90
10980;DHT22;5543;51.734;8.744;2022-10-16T13:36:57;18.60;99.90
10980;DHT22;5543;51.734;8.744;2022-10-16T13:39:27;18.60;99.90
10980;DHT22;5543;51.734;8.744;2022-10-16T13:42:01;18.60;99.90
10980;DHT22;5543;51.734;8.744;2022-10-16T13:44:37;18.60;99.90
10980;DHT22;5543;51.734;8.744;2022-10-16T13:47:16;18.70;99.90
10980;DHT22;5543;51.734;8.744;2022-10-16T13:49:46;18.90;99.90
10980;DHT22;5543;51.734;8.744;2022-10-16T13:52:19;18.90;99.90
10980;DHT22;5543;51.734;8.744;2022-10-16T13:54:47;18.90;99.90
10980;DHT22;5543;51.734;8.744;2022-10-16T13:57:16;18.80;99.90
10980;DHT22;5543;51.734;8.744;2022-10-16T13:59:54;18.80;99.90
10980;DHT22;5543;51.734;8.744;2022-10-16T14:02:26;18.70;99.90
10980;DHT22;5543;51.734;8.744;2022-10-16T14:04:57;18.70;99.90
10980;DHT22;5543;51.734;8.744;2022-10-16T14:07:28;18.50;99.90
10980;DHT22;5543;51.734;8.744;2022-10-16T14:10:01;18.50;99.90
10980;DHT22;5543;51.734;8.744;2022-10-16T14:12:30;18.40;99.90
10980;DHT22;5543;51.734;8.744;2022-10-16T14:14:59;18.30;99.90
10980;DHT22;5543;51.734;8.744;2022-10-16T14:17:30;18.20;99.90
10980;DHT22;5543;51.734;8.744;2022-10-16T14:20:03;18.20;99.90
10980;DHT22;5543;51.734;8.744;2022-10-16T14:22:34;18.10;99.90
10980;DHT22;5543;51.734;8.744;2022-10-16T14:25:26;18.10;99.90
10980;DHT22;5543;51.734;8.744;2022-10-16T14:28:04;17.90;99.90
10980;DHT22;5543;51.734;8.744;2022-10-16T14:30:34;17.80;99.90
10980;DHT22;5543;51.734;8.744;2022-10-16T14:33:05;17.70;99.90
10980;DHT22;5543;51.734;8.744;2022-10-16T14:35:36;17.60;99.90
10980;DHT22;5543;51.734;8.744;2022-10-16T14:38:06;17.50;99.90
10980;DHT22;5543;51.734;8.744;2022-10-16T14:40:47;17.40;99.90
10980;DHT22;5543;51.734;8.744;2022-10-16T14:43:20;17.40;99.90
10980;DHT22;5543;51.734;8.744;2022-10-16T14:45:52;17.30;99.90
10980;DHT22;5543;51.734;8.744;2022-10-16T14:48:21;17.20;99.90
10980;DHT22;5543;51.734;8.744;2022-10-16T14:50:51;17.20;99.90
10980;DHT22;5543;51.734;8.744;2022-10-16T14:53:19;17.20;99.90
10980;DHT22;5543;51.734;8.744;2022-10-16T14:55:47;17.10;99.90
10980;DHT22;5543;51.734;8.744;2022-10-16T14:58:18;17.00;99.90
10980;DHT22;5543;51.734;8.744;2022-10-16T15:00:47;17.00;99.90
10980;DHT22;5543;51.734;8.744;2022-10-16T15:03:15;17.00;99.90
10980;DHT22;5543;51.734;8.744;2022-10-16T15:05:44;16.90;99.90
10980;DHT22;5543;51.734;8.744;2022-10-16T15:08:13;16.80;99.90
10980;DHT22;5543;51.734;8.744;2022-10-16T15:10:43;16.70;99.90
10980;DHT22;5543;51.734;8.744;2022-10-16T15:13:12;16.70;99.90
10980;DHT22;5543;51.734;8.744;2022-10-16T15:15:43;16.60;99.90
10980;DHT22;5543;51.734;8.744;2022-10-16T15:18:12;16.50;99.90
10980;DHT22;5543;51.734;8.744;2022-10-16T15:20:49;16.50;99.90
10980;DHT22;5543;51.734;8.744;2022-10-16T15:23:20;16.50;99.90
10980;DHT22;5543;51.734;8.744;2022-10-16T15:25:51;16.50;99.90
10980;DHT22;5543;51.734;8.744;2022-10-16T15:28:21;16.50;99.90
10980;DHT22;5543;51.734;8.744;2022-10-16T15:30:51;16.40;99.90
10980;DHT22;5543;51.734;8.744;2022-10-16T15:33:21;16.30;99.90
10980;DHT22;5543;51.734;8.744;2022-10-16T15:35:50;16.20;99.90
10980;DHT22;5543;51.734;8.744;2022-10-16T15:38:22;16.10;99.90
10980;DHT22;5543;51.734;8.744;2022-10-16T15:40:52;16.10;99.90
10980;DHT22;5543;51.734;8.744;2022-10-16T15:43:21;16.00;99.90
10980;DHT22;5543;51.734;8.744;2022-10-16T15:45:59;16.00;99.90
10980;DHT22;5543;51.734;8.744;2022-10-16T15:48:28;15.90;99.90
10980;DHT22;5543;51.734;8.744;2022-10-16T15:50:57;15.90;99.90
10980;DHT22;5543;51.734;8.744;2022-10-16T15:53:26;15.90;99.90
10980;DHT22;5543;51.734;8.744;2022-10-16T15:55:54;15.80;99.90
10980;DHT22;5543;51.734;8.744;2022-10-16T15:58:22;15.70;99.90
10980;DHT22;5543;51.734;8.744;2022-10-16T16:00:55;15.70;99.90
10980;DHT22;5543;51.734;8.744;2022-10-16T16:03:23;15.50;99.90
10980;DHT22;5543;51.734;8.744;2022-10-16T16:05:52;15.50;99.90
10980;DHT22;5543;51.734;8.744;2022-10-16T16:08:20;15.50;99.90
10980;DHT22;5543;51.734;8.744;2022-10-16T16:10:59;15.40;99.90
10980;DHT22;5543;51.734;8.744;2022-10-16T16:13:27;15.40;99.90
10980;DHT22;5543;51.734;8.744;2022-10-16T16:15:55;15.40;99.90
10980;DHT22;5543;51.734;8.744;2022-10-16T16:18:24;15.20;99.90